Yankeetown, Florida
Current Conditions -  °F | °C
As of 1:15 PM on Thursday 18 Dec 2014 (Local Time) from KCGC Reporting Station
Clear Clear  
Wind Chill: 64°   Ceiling: Unl
Heat Index: 64°   Visibility: 10mi
Dew Point: 45°   Wind: 3mph
Humidity: 49%   Direction: 300°WNW
Pressure: 30.14"   Gusts: NA
Location:  29.03°N, 82.72°W
Report Text: KCGC 181815Z AUTO 30003KT 10SM CLR 18/07 A3014 RMK AO2
Loading
Personal Weather Stations






























Interactive Weather Map New forecast layout! Learn more

10-Day Weather Forecast

Advertisements
Track Severe Weather on mobile